sensor_id;sensor_type;location;lat;lon;timestamp;pressure;altitude;pressure_sealevel;temperature;humidity
40850;BME280;26571;41.610;25.380;2022-11-20T00:01:23;97940.47;;;18.93;84.60
40850;BME280;26571;41.610;25.380;2022-11-20T00:03:51;97944.41;;;19.02;84.09
40850;BME280;26571;41.610;25.380;2022-11-20T00:06:17;97944.78;;;19.05;83.90
40850;BME280;26571;41.610;25.380;2022-11-20T00:08:43;97945.22;;;19.02;84.02
40850;BME280;26571;41.610;25.380;2022-11-20T00:11:23;97945.56;;;19.06;83.91
40850;BME280;26571;41.610;25.380;2022-11-20T00:13:53;97943.13;;;19.04;83.39
40850;BME280;26571;41.610;25.380;2022-11-20T00:16:21;97943.25;;;18.98;83.63
40850;BME280;26571;41.610;25.380;2022-11-20T00:18:46;97950.09;;;19.05;83.12
40850;BME280;26571;41.610;25.380;2022-11-20T00:21:13;97948.00;;;19.07;83.34
40850;BME280;26571;41.610;25.380;2022-11-20T00:23:39;97959.47;;;19.08;82.88
40850;BME280;26571;41.610;25.380;2022-11-20T00:26:07;97949.19;;;19.00;83.09
40850;BME280;26571;41.610;25.380;2022-11-20T00:28:33;97959.97;;;19.05;82.99
40850;BME280;26571;41.610;25.380;2022-11-20T00:31:16;97972.47;;;19.04;83.32
40850;BME280;26571;41.610;25.380;2022-11-20T00:33:43;97956.47;;;19.04;82.96
40850;BME280;26571;41.610;25.380;2022-11-20T00:36:28;97948.81;;;18.96;83.12
40850;BME280;26571;41.610;25.380;2022-11-20T00:38:56;97929.44;;;18.89;82.99
40850;BME280;26571;41.610;25.380;2022-11-20T00:41:22;97956.03;;;18.96;83.35
40850;BME280;26571;41.610;25.380;2022-11-20T00:43:48;97930.00;;;18.79;83.54
40850;BME280;26571;41.610;25.380;2022-11-20T00:46:16;97951.50;;;18.96;83.49
40850;BME280;26571;41.610;25.380;2022-11-20T00:48:43;97953.69;;;18.99;83.03
40850;BME280;26571;41.610;25.380;2022-11-20T00:51:10;97936.19;;;18.92;82.67
40850;BME280;26571;41.610;25.380;2022-11-20T00:53:36;97957.28;;;18.93;82.96
40850;BME280;26571;41.610;25.380;2022-11-20T00:56:07;97908.34;;;18.76;82.93
40850;BME280;26571;41.610;25.380;2022-11-20T00:58:34;97937.09;;;18.97;82.61
40850;BME280;26571;41.610;25.380;2022-11-20T01:01:05;97911.72;;;18.83;82.69
40850;BME280;26571;41.610;25.380;2022-11-20T01:03:36;97936.53;;;18.95;82.30
40850;BME280;26571;41.610;25.380;2022-11-20T01:06:23;97933.38;;;18.98;81.88
40850;BME280;26571;41.610;25.380;2022-11-20T01:08:50;97944.53;;;18.95;81.89
40850;BME280;26571;41.610;25.380;2022-11-20T01:11:17;97945.09;;;18.97;81.68
40850;BME280;26571;41.610;25.380;2022-11-20T01:13:44;97941.63;;;18.97;81.72
40850;BME280;26571;41.610;25.380;2022-11-20T01:16:13;97938.28;;;19.01;81.67
40850;BME280;26571;41.610;25.380;2022-11-20T01:18:42;97942.00;;;19.00;81.55
40850;BME280;26571;41.610;25.380;2022-11-20T01:21:11;97926.44;;;18.97;81.74
40850;BME280;26571;41.610;25.380;2022-11-20T01:23:39;97930.84;;;19.03;81.13
40850;BME280;26571;41.610;25.380;2022-11-20T01:26:10;97935.59;;;19.01;81.42
40850;BME280;26571;41.610;25.380;2022-11-20T01:28:37;97918.31;;;18.92;81.14
40850;BME280;26571;41.610;25.380;2022-11-20T01:31:14;97942.00;;;19.00;81.13
40850;BME280;26571;41.610;25.380;2022-11-20T01:33:40;97936.16;;;19.03;80.95
40850;BME280;26571;41.610;25.380;2022-11-20T01:36:07;97906.72;;;18.87;80.55
40850;BME280;26571;41.610;25.380;2022-11-20T01:38:32;97938.75;;;19.10;80.33
40850;BME280;26571;41.610;25.380;2022-11-20T01:40:58;97935.72;;;19.06;80.51
40850;BME280;26571;41.610;25.380;2022-11-20T01:43:24;97940.00;;;19.07;80.53
40850;BME280;26571;41.610;25.380;2022-11-20T01:46:18;97933.16;;;19.11;80.32
40850;BME280;26571;41.610;25.380;2022-11-20T01:49:21;97933.06;;;19.06;80.32
40850;BME280;26571;41.610;25.380;2022-11-20T01:54:25;97936.66;;;19.00;81.14
40850;BME280;26571;41.610;25.380;2022-11-20T01:56:55;97948.22;;;18.94;81.27
40850;BME280;26571;41.610;25.380;2022-11-20T01:59:23;97939.66;;;18.92;81.41
40850;BME280;26571;41.610;25.380;2022-11-20T02:01:49;97943.81;;;18.88;81.67
40850;BME280;26571;41.610;25.380;2022-11-20T02:04:15;97933.41;;;18.75;81.71
40850;BME280;26571;41.610;25.380;2022-11-20T02:06:45;97944.53;;;18.95;81.34
40850;BME280;26571;41.610;25.380;2022-11-20T02:09:11;97941.88;;;18.95;80.88
40850;BME280;26571;41.610;25.380;2022-11-20T02:11:36;97942.56;;;18.91;80.69
40850;BME280;26571;41.610;25.380;2022-11-20T02:14:02;97953.56;;;18.94;80.37
40850;BME280;26571;41.610;25.380;2022-11-20T02:16:39;97954.41;;;18.95;80.17
40850;BME280;26571;41.610;25.380;2022-11-20T02:19:11;97954.28;;;19.01;79.98
40850;BME280;26571;41.610;25.380;2022-11-20T02:21:53;97943.13;;;19.04;79.50
40850;BME280;26571;41.610;25.380;2022-11-20T02:24:22;97907.31;;;18.77;79.55
40850;BME280;26571;41.610;25.380;2022-11-20T02:26:52;97944.41;;;19.02;79.68
40850;BME280;26571;41.610;25.380;2022-11-20T02:29:37;97950.81;;;19.01;79.54
40850;BME280;26571;41.610;25.380;2022-11-20T02:32:04;97957.19;;;19.00;79.73
40850;BME280;26571;41.610;25.380;2022-11-20T02:34:30;97952.06;;;19.10;79.97
40850;BME280;26571;41.610;25.380;2022-11-20T02:36:56;97958.09;;;19.05;79.98
40850;BME280;26571;41.610;25.380;2022-11-20T02:39:24;97950.31;;;18.92;81.14
40850;BME280;26571;41.610;25.380;2022-11-20T02:41:52;97953.13;;;18.85;81.78
40850;BME280;26571;41.610;25.380;2022-11-20T02:44:17;97947.53;;;18.87;81.87
40850;BME280;26571;41.610;25.380;2022-11-20T02:46:43;97939.31;;;18.89;82.65
40850;BME280;26571;41.610;25.380;2022-11-20T02:49:08;97939.31;;;18.89;82.62
40850;BME280;26571;41.610;25.380;2022-11-20T02:51:34;97928.41;;;18.78;83.07
40850;BME280;26571;41.610;25.380;2022-11-20T02:53:59;97907.72;;;18.62;83.59
40850;BME280;26571;41.610;25.380;2022-11-20T02:56:25;97937.69;;;18.76;83.74
40850;BME280;26571;41.610;25.380;2022-11-20T02:58:50;97929.56;;;18.71;83.97
40850;BME280;26571;41.610;25.380;2022-11-20T03:01:16;97935.09;;;18.69;84.45
40850;BME280;26571;41.610;25.380;2022-11-20T03:03:41;97939.03;;;18.67;84.68
40850;BME280;26571;41.610;25.380;2022-11-20T03:06:07;97932.53;;;18.63;85.21
40850;BME280;26571;41.610;25.380;2022-11-20T03:08:33;97931.72;;;18.62;85.62
40850;BME280;26571;41.610;25.380;2022-11-20T03:11:03;97928.25;;;18.62;86.26
40850;BME280;26571;41.610;25.380;2022-11-20T03:13:29;97931.25;;;18.53;86.61
40850;BME280;26571;41.610;25.380;2022-11-20T03:15:54;97923.03;;;18.55;87.00
40850;BME280;26571;41.610;25.380;2022-11-20T03:18:19;97936.00;;;18.51;86.83
40850;BME280;26571;41.610;25.380;2022-11-20T03:20:45;97931.59;;;18.57;87.41
40850;BME280;26571;41.610;25.380;2022-11-20T03:23:10;97932.16;;;18.47;87.74
40850;BME280;26571;41.610;25.380;2022-11-20T03:25:36;97931.00;;;18.43;88.02
40850;BME280;26571;41.610;25.380;2022-11-20T03:28:01;97921.38;;;18.42;88.00
40850;BME280;26571;41.610;25.380;2022-11-20T03:30:26;97931.47;;;18.40;88.21
40850;BME280;26571;41.610;25.380;2022-11-20T03:32:53;97928.69;;;18.35;88.46
40850;BME280;26571;41.610;25.380;2022-11-20T03:35:19;97925.78;;;18.37;88.74
40850;BME280;26571;41.610;25.380;2022-11-20T03:37:44;97927.81;;;18.23;88.90
40850;BME280;26571;41.610;25.380;2022-11-20T03:40:11;97920.31;;;18.31;89.24
40850;BME280;26571;41.610;25.380;2022-11-20T03:42:36;97913.56;;;18.29;89.34
40850;BME280;26571;41.610;25.380;2022-11-20T03:45:10;97909.16;;;18.23;89.48
40850;BME280;26571;41.610;25.380;2022-11-20T03:47:36;97892.34;;;18.11;89.61
40850;BME280;26571;41.610;25.380;2022-11-20T03:50:02;97900.13;;;18.24;89.40
40850;BME280;26571;41.610;25.380;2022-11-20T03:52:28;97886.94;;;18.29;88.98
40850;BME280;26571;41.610;25.380;2022-11-20T03:54:53;97884.50;;;18.27;89.20
40850;BME280;26571;41.610;25.380;2022-11-20T03:57:19;97881.72;;;18.22;88.83
40850;BME280;26571;41.610;25.380;2022-11-20T03:59:44;97887.59;;;18.13;89.13
40850;BME280;26571;41.610;25.380;2022-11-20T04:02:09;97899.06;;;18.13;89.65
40850;BME280;26571;41.610;25.380;2022-11-20T04:04:35;97889.69;;;18.11;89.66
40850;BME280;26571;41.610;25.380;2022-11-20T04:07:00;97854.69;;;17.95;89.60
40850;BME280;26571;41.610;25.380;2022-11-20T04:09:26;97885.50;;;18.15;88.95
40850;BME280;26571;41.610;25.380;2022-11-20T04:11:51;97886.69;;;18.19;88.58
40850;BME280;26571;41.610;25.380;2022-11-20T04:14:16;97883.56;;;18.22;88.48
40850;BME280;26571;41.610;25.380;2022-11-20T04:16:42;97870.25;;;18.22;88.23
40850;BME280;26571;41.610;25.380;2022-11-20T04:19:14;97858.19;;;18.19;88.08
40850;BME280;26571;41.610;25.380;2022-11-20T04:21:40;97867.91;;;18.14;88.48
40850;BME280;26571;41.610;25.380;2022-11-20T04:24:06;97872.91;;;18.10;88.91
40850;BME280;26571;41.610;25.380;2022-11-20T04:26:32;97863.72;;;18.06;88.74
40850;BME280;26571;41.610;25.380;2022-11-20T04:28:58;97840.94;;;17.80;88.94
40850;BME280;26571;41.610;25.380;2022-11-20T04:31:28;97821.28;;;17.81;88.94
40850;BME280;26571;41.610;25.380;2022-11-20T04:33:54;97862.56;;;18.14;88.96
40850;BME280;26571;41.610;25.380;2022-11-20T04:36:22;97861.88;;;18.06;89.08
40850;BME280;26571;41.610;25.380;2022-11-20T04:38:56;97862.94;;;18.05;89.41
40850;BME280;26571;41.610;25.380;2022-11-20T04:41:25;97878.06;;;18.05;89.52
40850;BME280;26571;41.610;25.380;2022-11-20T04:43:53;97892.94;;;18.13;89.43
40850;BME280;26571;41.610;25.380;2022-11-20T04:46:23;97882.72;;;18.09;89.46
40850;BME280;26571;41.610;25.380;2022-11-20T04:48:49;97890.03;;;18.14;89.30
40850;BME280;26571;41.610;25.380;2022-11-20T04:51:14;97892.00;;;18.19;89.43
40850;BME280;26571;41.610;25.380;2022-11-20T04:53:40;97892.13;;;18.12;89.33
40850;BME280;26571;41.610;25.380;2022-11-20T04:56:07;97900.34;;;18.11;89.17
40850;BME280;26571;41.610;25.380;2022-11-20T04:58:33;97861.50;;;17.91;89.94
40850;BME280;26571;41.610;25.380;2022-11-20T05:01:04;97898.13;;;18.07;89.60
40850;BME280;26571;41.610;25.380;2022-11-20T05:03:30;97898.00;;;18.02;89.78
40850;BME280;26571;41.610;25.380;2022-11-20T05:05:55;97886.91;;;18.05;89.90
40850;BME280;26571;41.610;25.380;2022-11-20T05:08:20;97889.69;;;18.11;89.20
40850;BME280;26571;41.610;25.380;2022-11-20T05:10:46;97877.13;;;17.99;89.91
40850;BME280;26571;41.610;25.380;2022-11-20T05:13:11;97885.84;;;18.06;90.12
40850;BME280;26571;41.610;25.380;2022-11-20T05:15:37;97882.81;;;18.03;90.13
40850;BME280;26571;41.610;25.380;2022-11-20T05:18:02;97871.72;;;18.06;90.05
40850;BME280;26571;41.610;25.380;2022-11-20T05:20:28;97869.63;;;17.96;90.20
40850;BME280;26571;41.610;25.380;2022-11-20T05:22:56;97874.59;;;18.04;89.93
40850;BME280;26571;41.610;25.380;2022-11-20T05:25:22;97862.31;;;18.03;89.89
40850;BME280;26571;41.610;25.380;2022-11-20T05:27:48;97863.94;;;18.04;89.54
40850;BME280;26571;41.610;25.380;2022-11-20T05:30:13;97879.91;;;18.04;90.05
40850;BME280;26571;41.610;25.380;2022-11-20T05:32:39;97875.06;;;18.01;89.96
40850;BME280;26571;41.610;25.380;2022-11-20T05:35:04;97872.75;;;18.05;89.58
40850;BME280;26571;41.610;25.380;2022-11-20T05:37:30;97867.66;;;18.03;89.31
40850;BME280;26571;41.610;25.380;2022-11-20T05:39:55;97865.59;;;18.05;88.90
40850;BME280;26571;41.610;25.380;2022-11-20T05:42:21;97865.59;;;18.05;89.44
40850;BME280;26571;41.610;25.380;2022-11-20T05:44:55;97822.31;;;17.80;89.90
40850;BME280;26571;41.610;25.380;2022-11-20T05:47:21;97853.03;;;17.94;90.11
40850;BME280;26571;41.610;25.380;2022-11-20T05:49:46;97847.38;;;17.91;90.18
40850;BME280;26571;41.610;25.380;2022-11-20T05:52:11;97854.56;;;17.90;90.02
40850;BME280;26571;41.610;25.380;2022-11-20T05:54:37;97862.53;;;17.90;89.88
40850;BME280;26571;41.610;25.380;2022-11-20T05:57:02;97869.47;;;17.91;90.26
40850;BME280;26571;41.610;25.380;2022-11-20T05:59:28;97865.91;;;17.97;89.38
40850;BME280;26571;41.610;25.380;2022-11-20T06:01:53;97883.19;;;18.06;88.54
40850;BME280;26571;41.610;25.380;2022-11-20T06:04:19;97875.31;;;18.12;88.05
40850;BME280;26571;41.610;25.380;2022-11-20T06:06:44;97883.34;;;18.23;87.70
40850;BME280;26571;41.610;25.380;2022-11-20T06:09:09;97880.44;;;18.25;87.40
40850;BME280;26571;41.610;25.380;2022-11-20T06:11:35;97877.91;;;18.30;87.15
40850;BME280;26571;41.610;25.380;2022-11-20T06:14:00;97886.97;;;18.41;86.91
40850;BME280;26571;41.610;25.380;2022-11-20T06:16:25;97867.97;;;18.37;86.16
40850;BME280;26571;41.610;25.380;2022-11-20T06:18:51;97895.78;;;18.53;85.99
40850;BME280;26571;41.610;25.380;2022-11-20T06:21:19;97896.03;;;18.51;85.87
40850;BME280;26571;41.610;25.380;2022-11-20T06:23:45;97894.41;;;18.50;85.67
40850;BME280;26571;41.610;25.380;2022-11-20T06:26:13;97894.59;;;18.49;85.97
40850;BME280;26571;41.610;25.380;2022-11-20T06:28:39;97905.75;;;18.57;85.75
40850;BME280;26571;41.610;25.380;2022-11-20T06:31:06;97897.19;;;18.55;85.49
40850;BME280;26571;41.610;25.380;2022-11-20T06:33:32;97917.34;;;18.51;85.49
40850;BME280;26571;41.610;25.380;2022-11-20T06:36:01;97880.34;;;18.31;85.41
40850;BME280;26571;41.610;25.380;2022-11-20T06:38:27;97910.97;;;18.52;85.46
40850;BME280;26571;41.610;25.380;2022-11-20T06:40:53;97919.19;;;18.63;85.04
40850;BME280;26571;41.610;25.380;2022-11-20T06:43:19;97875.72;;;18.39;85.05
40850;BME280;26571;41.610;25.380;2022-11-20T06:45:44;97913.31;;;18.60;84.94
40850;BME280;26571;41.610;25.380;2022-11-20T06:48:10;97913.41;;;18.66;85.28
40850;BME280;26571;41.610;25.380;2022-11-20T06:50:38;97914.31;;;18.59;85.17
40850;BME280;26571;41.610;25.380;2022-11-20T06:53:04;97920.13;;;18.56;85.43
40850;BME280;26571;41.610;25.380;2022-11-20T06:55:31;97916.06;;;18.54;85.89
40850;BME280;26571;41.610;25.380;2022-11-20T06:57:56;97931.84;;;18.55;86.04
40850;BME280;26571;41.610;25.380;2022-11-20T07:00:22;97923.03;;;18.55;85.78
40850;BME280;26571;41.610;25.380;2022-11-20T07:02:47;97927.53;;;18.54;86.20
40850;BME280;26571;41.610;25.380;2022-11-20T07:05:13;97932.84;;;18.54;86.33
40850;BME280;26571;41.610;25.380;2022-11-20T07:07:38;97940.09;;;18.66;85.97
40850;BME280;26571;41.610;25.380;2022-11-20T07:10:04;97939.53;;;18.75;85.03
40850;BME280;26571;41.610;25.380;2022-11-20T07:12:29;97941.84;;;18.83;84.46
40850;BME280;26571;41.610;25.380;2022-11-20T07:14:55;97935.63;;;18.90;84.10
40850;BME280;26571;41.610;25.380;2022-11-20T07:17:20;97938.59;;;18.93;84.05
40850;BME280;26571;41.610;25.380;2022-11-20T07:19:46;97923.78;;;18.97;83.71
40850;BME280;26571;41.610;25.380;2022-11-20T07:22:11;97939.41;;;18.94;83.77
40850;BME280;26571;41.610;25.380;2022-11-20T07:24:36;97932.81;;;18.96;83.63
40850;BME280;26571;41.610;25.380;2022-11-20T07:27:02;97938.63;;;19.05;83.39
40850;BME280;26571;41.610;25.380;2022-11-20T07:29:27;97931.88;;;19.14;82.79
40850;BME280;26571;41.610;25.380;2022-11-20T07:31:52;97938.47;;;19.23;82.24
40850;BME280;26571;41.610;25.380;2022-11-20T07:34:20;97947.88;;;19.26;81.41
40850;BME280;26571;41.610;25.380;2022-11-20T07:36:45;97947.41;;;19.29;81.21
40850;BME280;26571;41.610;25.380;2022-11-20T07:39:11;97949.63;;;19.32;80.67
40850;BME280;26571;41.610;25.380;2022-11-20T07:41:36;97945.44;;;19.36;80.07
40850;BME280;26571;41.610;25.380;2022-11-20T07:44:02;97935.00;;;19.23;80.41
40850;BME280;26571;41.610;25.380;2022-11-20T07:46:27;97938.38;;;19.30;80.67
40850;BME280;26571;41.610;25.380;2022-11-20T07:48:52;97949.50;;;19.27;80.71
40850;BME280;26571;41.610;25.380;2022-11-20T07:51:18;97938.94;;;19.32;80.84
40850;BME280;26571;41.610;25.380;2022-11-20T07:53:43;97941.72;;;19.37;80.97
40850;BME280;26571;41.610;25.380;2022-11-20T07:56:09;97951.00;;;19.46;80.25
40850;BME280;26571;41.610;25.380;2022-11-20T07:58:34;97941.69;;;19.60;79.72
40850;BME280;26571;41.610;25.380;2022-11-20T08:01:07;97946.09;;;19.67;79.15
40850;BME280;26571;41.610;25.380;2022-11-20T08:03:35;97957.22;;;19.63;79.10
40850;BME280;26571;41.610;25.380;2022-11-20T08:06:03;97949.81;;;19.66;79.26
40850;BME280;26571;41.610;25.380;2022-11-20T08:08:29;97955.91;;;19.78;78.45
40850;BME280;26571;41.610;25.380;2022-11-20T08:10:57;97968.97;;;19.74;78.13
40850;BME280;26571;41.610;25.380;2022-11-20T08:13:42;97961.97;;;19.73;78.19
40850;BME280;26571;41.610;25.380;2022-11-20T08:16:26;97944.81;;;19.69;78.08
40850;BME280;26571;41.610;25.380;2022-11-20T08:18:51;97953.84;;;19.80;78.19
40850;BME280;26571;41.610;25.380;2022-11-20T08:21:17;97972.34;;;19.70;78.68
40850;BME280;26571;41.610;25.380;2022-11-20T08:23:42;97949.66;;;19.72;78.87
40850;BME280;26571;41.610;25.380;2022-11-20T08:26:08;97950.47;;;19.73;79.03
40850;BME280;26571;41.610;25.380;2022-11-20T08:28:33;97957.22;;;19.63;78.83
40850;BME280;26571;41.610;25.380;2022-11-20T08:31:00;97954.44;;;19.58;79.01
40850;BME280;26571;41.610;25.380;2022-11-20T08:33:25;97954.91;;;19.67;78.96
40850;BME280;26571;41.610;25.380;2022-11-20T08:35:51;97949.31;;;19.69;78.22
40850;BME280;26571;41.610;25.380;2022-11-20T08:38:16;97937.53;;;19.65;78.45
40850;BME280;26571;41.610;25.380;2022-11-20T08:40:42;97916.50;;;19.56;77.93
40850;BME280;26571;41.610;25.380;2022-11-20T08:43:27;97928.81;;;19.69;77.29
40850;BME280;26571;41.610;25.380;2022-11-20T08:45:52;97931.22;;;19.71;77.23
40850;BME280;26571;41.610;25.380;2022-11-20T08:48:18;97929.22;;;19.78;76.85
40850;BME280;26571;41.610;25.380;2022-11-20T08:50:44;97926.53;;;19.78;77.04
40850;BME280;26571;41.610;25.380;2022-11-20T08:53:09;97920.84;;;19.86;76.27
40850;BME280;26571;41.610;25.380;2022-11-20T08:55:35;97921.78;;;19.80;76.50
40850;BME280;26571;41.610;25.380;2022-11-20T08:58:04;97920.53;;;19.71;76.91
40850;BME280;26571;41.610;25.380;2022-11-20T09:00:30;97923.91;;;19.66;77.33
40850;BME280;26571;41.610;25.380;2022-11-20T09:02:55;97912.78;;;19.69;77.41
40850;BME280;26571;41.610;25.380;2022-11-20T09:05:21;97923.97;;;19.83;77.21
40850;BME280;26571;41.610;25.380;2022-11-20T09:07:46;97931.06;;;19.89;76.39
40850;BME280;26571;41.610;25.380;2022-11-20T09:10:11;97926.28;;;19.91;76.34
40850;BME280;26571;41.610;25.380;2022-11-20T09:12:37;97929.50;;;19.93;76.59
40850;BME280;26571;41.610;25.380;2022-11-20T09:15:02;97923.41;;;19.81;76.76
40850;BME280;26571;41.610;25.380;2022-11-20T09:17:28;97916.66;;;19.78;77.06
40850;BME280;26571;41.610;25.380;2022-11-20T09:19:53;97903.94;;;19.69;77.32
40850;BME280;26571;41.610;25.380;2022-11-20T09:22:18;97904.97;;;19.68;77.67
40850;BME280;26571;41.610;25.380;2022-11-20T09:24:44;97907.09;;;19.66;77.90
40850;BME280;26571;41.610;25.380;2022-11-20T09:27:09;97907.66;;;19.68;77.66
40850;BME280;26571;41.610;25.380;2022-11-20T09:29:34;97902.66;;;19.71;77.06
40850;BME280;26571;41.610;25.380;2022-11-20T09:32:00;97891.63;;;19.68;77.23
40850;BME280;26571;41.610;25.380;2022-11-20T09:34:25;97873.34;;;19.59;77.39
40850;BME280;26571;41.610;25.380;2022-11-20T09:36:51;97888.84;;;19.74;77.16
40850;BME280;26571;41.610;25.380;2022-11-20T09:39:16;97890.28;;;19.82;76.43
40850;BME280;26571;41.610;25.380;2022-11-20T09:44:46;97886.63;;;19.71;77.00
40850;BME280;26571;41.610;25.380;2022-11-20T09:49:58;97893.94;;;19.64;77.00
40850;BME280;26571;41.610;25.380;2022-11-20T09:55:12;97886.47;;;19.49;78.04
40850;BME280;26571;41.610;25.380;2022-11-20T09:57:41;97894.31;;;19.56;78.54
40850;BME280;26571;41.610;25.380;2022-11-20T10:00:10;97881.03;;;19.32;78.38
40850;BME280;26571;41.610;25.380;2022-11-20T10:02:39;97908.84;;;19.48;78.93
40850;BME280;26571;41.610;25.380;2022-11-20T10:05:29;97899.47;;;19.34;81.38
40850;BME280;26571;41.610;25.380;2022-11-20T10:10:47;97888.16;;;19.55;80.14
40850;BME280;26571;41.610;25.380;2022-11-20T10:13:24;97894.88;;;19.70;79.23
40850;BME280;26571;41.610;25.380;2022-11-20T10:16:15;97871.78;;;19.63;79.07
40850;BME280;26571;41.610;25.380;2022-11-20T10:29:47;97887.47;;;20.68;74.24
40850;BME280;26571;41.610;25.380;2022-11-20T10:32:20;97891.88;;;20.74;73.15
40850;BME280;26571;41.610;25.380;2022-11-20T10:35:01;97897.03;;;20.63;72.52
40850;BME280;26571;41.610;25.380;2022-11-20T10:37:31;97893.56;;;20.46;73.07
40850;BME280;26571;41.610;25.380;2022-11-20T10:42:31;97886.00;;;20.43;73.64
40850;BME280;26571;41.610;25.380;2022-11-20T10:45:13;97886.19;;;20.53;73.19
40850;BME280;26571;41.610;25.380;2022-11-20T10:47:40;97886.13;;;20.48;73.28
40850;BME280;26571;41.610;25.380;2022-11-20T10:50:11;97878.88;;;20.32;73.69
40850;BME280;26571;41.610;25.380;2022-11-20T10:53:00;97873.78;;;20.30;74.17
40850;BME280;26571;41.610;25.380;2022-11-20T11:00:40;97840.25;;;20.56;72.60
40850;BME280;26571;41.610;25.380;2022-11-20T11:03:26;97834.28;;;20.88;71.63
40850;BME280;26571;41.610;25.380;2022-11-20T11:06:03;97822.59;;;20.94;70.72
40850;BME280;26571;41.610;25.380;2022-11-20T11:08:37;97833.69;;;21.25;69.91
40850;BME280;26571;41.610;25.380;2022-11-20T11:13:48;97848.28;;;21.34;68.61
40850;BME280;26571;41.610;25.380;2022-11-20T11:16:25;97826.16;;;21.00;69.52
40850;BME280;26571;41.610;25.380;2022-11-20T11:18:51;97808.66;;;20.92;70.17
40850;BME280;26571;41.610;25.380;2022-11-20T11:21:24;97764.03;;;20.54;70.38
40850;BME280;26571;41.610;25.380;2022-11-20T11:24:02;97801.66;;;20.69;70.83
40850;BME280;26571;41.610;25.380;2022-11-20T11:26:28;97782.16;;;20.35;71.32
40850;BME280;26571;41.610;25.380;2022-11-20T11:29:03;97813.59;;;20.61;71.32
40850;BME280;26571;41.610;25.380;2022-11-20T11:31:34;97783.75;;;20.70;70.23
40850;BME280;26571;41.610;25.380;2022-11-20T11:34:07;97796.63;;;20.73;69.96
40850;BME280;26571;41.610;25.380;2022-11-20T11:36:34;97791.63;;;20.59;70.17
40850;BME280;26571;41.610;25.380;2022-11-20T11:39:01;97791.72;;;20.31;71.21
40850;BME280;26571;41.610;25.380;2022-11-20T11:41:32;97791.41;;;20.27;71.83
40850;BME280;26571;41.610;25.380;2022-11-20T11:46:57;97797.72;;;20.04;72.98
40850;BME280;26571;41.610;25.380;2022-11-20T11:49:23;97786.53;;;20.07;73.10
40850;BME280;26571;41.610;25.380;2022-11-20T11:54:28;97793.19;;;20.05;73.12
40850;BME280;26571;41.610;25.380;2022-11-20T11:56:58;97793.13;;;20.00;73.23
40850;BME280;26571;41.610;25.380;2022-11-20T11:59:47;97776.84;;;20.01;72.71
40850;BME280;26571;41.610;25.380;2022-11-20T12:03:00;97775.69;;;19.97;73.19
40850;BME280;26571;41.610;25.380;2022-11-20T12:05:26;97788.50;;;20.12;72.90
40850;BME280;26571;41.610;25.380;2022-11-20T12:13:18;97781.06;;;20.14;72.31
40850;BME280;26571;41.610;25.380;2022-11-20T12:15:47;97788.50;;;20.12;72.22
40850;BME280;26571;41.610;25.380;2022-11-20T12:18:18;97785.47;;;20.08;71.51
40850;BME280;26571;41.610;25.380;2022-11-20T12:23:42;97784.22;;;19.94;72.15
40850;BME280;26571;41.610;25.380;2022-11-20T12:26:31;97781.47;;;19.89;72.45
40850;BME280;26571;41.610;25.380;2022-11-20T12:37:49;97763.66;;;19.95;72.03
40850;BME280;26571;41.610;25.380;2022-11-20T12:43:21;97777.81;;;19.95;71.89
40850;BME280;26571;41.610;25.380;2022-11-20T12:46:09;97772.59;;;19.88;72.14
40850;BME280;26571;41.610;25.380;2022-11-20T12:49:19;97777.00;;;19.95;71.78
40850;BME280;26571;41.610;25.380;2022-11-20T12:52:13;97783.72;;;19.97;71.04
40850;BME280;26571;41.610;25.380;2022-11-20T12:55:20;97772.31;;;19.85;71.78
40850;BME280;26571;41.610;25.380;2022-11-20T12:57:57;97770.81;;;19.77;72.29
40850;BME280;26571;41.610;25.380;2022-11-20T13:00:24;97775.03;;;19.73;72.52
40850;BME280;26571;41.610;25.380;2022-11-20T13:05:57;97760.31;;;19.71;73.00
40850;BME280;26571;41.610;25.380;2022-11-20T13:08:27;97763.31;;;19.74;72.79
40850;BME280;26571;41.610;25.380;2022-11-20T13:11:15;97773.06;;;19.69;73.26
40850;BME280;26571;41.610;25.380;2022-11-20T13:16:52;97765.31;;;19.67;73.39
40850;BME280;26571;41.610;25.380;2022-11-20T13:19:20;97759.63;;;19.63;73.44
40850;BME280;26571;41.610;25.380;2022-11-20T13:21:48;97765.56;;;19.66;73.53
40850;BME280;26571;41.610;25.380;2022-11-20T13:29:42;97763.94;;;19.65;73.87
40850;BME280;26571;41.610;25.380;2022-11-20T13:32:15;97743.31;;;19.60;74.01
40850;BME280;26571;41.610;25.380;2022-11-20T13:34:56;97709.31;;;19.27;73.84
40850;BME280;26571;41.610;25.380;2022-11-20T13:42:35;97750.50;;;19.31;75.48
40850;BME280;26571;41.610;25.380;2022-11-20T13:45:09;97755.75;;;19.26;76.00
40850;BME280;26571;41.610;25.380;2022-11-20T13:47:35;97731.91;;;19.07;76.05
40850;BME280;26571;41.610;25.380;2022-11-20T13:50:03;97749.81;;;19.24;76.20
40850;BME280;26571;41.610;25.380;2022-11-20T13:55:21;97745.44;;;19.18;76.59
40850;BME280;26571;41.610;25.380;2022-11-20T13:57:59;97753.00;;;19.09;77.30
40850;BME280;26571;41.610;25.380;2022-11-20T14:00:28;97754.19;;;19.01;77.88
40850;BME280;26571;41.610;25.380;2022-11-20T14:05:37;97750.47;;;19.02;78.34
40850;BME280;26571;41.610;25.380;2022-11-20T14:08:06;97689.81;;;18.57;78.05
40850;BME280;26571;41.610;25.380;2022-11-20T14:10:36;97747.16;;;18.95;78.47
40850;BME280;26571;41.610;25.380;2022-11-20T14:13:20;97753.50;;;18.94;79.04
40850;BME280;26571;41.610;25.380;2022-11-20T14:15:47;97754.56;;;18.93;78.99
40850;BME280;26571;41.610;25.380;2022-11-20T14:18:15;97751.34;;;18.91;79.32
40850;BME280;26571;41.610;25.380;2022-11-20T14:20:44;97742.03;;;18.94;78.97
40850;BME280;26571;41.610;25.380;2022-11-20T14:23:10;97747.63;;;18.92;78.94